ソウル/仁川 の空港の天気 - METARとTAF

仁川国際空港 ( RKSI / ICN ) - 韓国 仁川広域市 (ソウル特別市近郊)
飛行場実況気象(Metar)
観測時間10/16 15:30 KST (10/16 06:30 UTC)
風向・風速西 4m/s
視程10km以上
天気現象
なし
気温18℃
湿度45%
気圧1015hPa
METARRKSI 160630Z 28008KT CAVOK 18/06 Q1015 NOSIG
過去の天気等 Google飛行場航空写真 Wunderground天気予報

過去48時間のMETAR

飛行場予報(TAF)
発表時間: 10/16 14:00 KST (10/16 05:00 UTC)
予報対象時間: 16日15時 KST ~ 17日21時 KST
風向・風速北西 4m/s
視程10km以上
少しの雲 雲底高度 910m
全天の4割程度の雲 雲底高度 5490m
17日15時 KST ~ 17日16時 KST に徐々に
風向・風速東北東 3m/s
17日18時 KST ~ 17日19時 KST に徐々に
風向・風速北北西 4m/s
TAF RKSI 160500Z 1606/1712 31008KT 9999 FEW030 SCT180 TN09/1621Z TX16/1705Z
BECMG 1706/1707 07006KT
BECMG 1709/1710 34007KT